createdAt,value
2018-08-17T00:02:07.152Z,20.30
2018-08-17T00:04:35.720Z,22.33
2018-08-17T00:07:04.553Z,20.70
2018-08-17T00:09:32.974Z,24.80
2018-08-17T00:12:01.399Z,18.67
2018-08-17T00:14:29.821Z,20.97
2018-08-17T00:16:58.247Z,24.30
2018-08-17T00:19:26.659Z,22.33
2018-08-17T00:21:55.140Z,21.17
2018-08-17T00:24:23.717Z,21.50
2018-08-17T00:26:52.204Z,25.80
2018-08-17T00:29:20.635Z,21.07
2018-08-17T00:31:49.085Z,20.00
2018-08-17T00:34:17.484Z,21.07
2018-08-17T00:36:45.912Z,20.33
2018-08-17T00:39:14.300Z,23.00
2018-08-17T00:41:42.701Z,18.83
2018-08-17T00:44:11.361Z,22.73
2018-08-17T00:46:39.877Z,20.63
2018-08-17T00:49:08.340Z,21.60
2018-08-17T00:51:36.756Z,19.03
2018-08-17T00:54:06.154Z,21.33
2018-08-17T00:56:34.619Z,23.70
2018-08-17T00:59:03.077Z,21.70
2018-08-17T01:01:31.579Z,22.80
2018-08-17T01:04:00.004Z,19.57
2018-08-17T01:06:28.519Z,19.27
2018-08-17T01:08:56.959Z,24.10
2018-08-17T01:11:26.196Z,19.63
2018-08-17T01:13:54.676Z,22.97
2018-08-17T01:16:23.092Z,22.43
2018-08-17T01:18:52.342Z,25.73
2018-08-17T01:21:20.791Z,21.30
2018-08-17T01:23:49.189Z,24.43
2018-08-17T01:26:17.725Z,21.67
2018-08-17T01:28:46.093Z,23.00
2018-08-17T01:31:14.486Z,25.43
2018-08-17T01:33:42.958Z,19.23
2018-08-17T01:36:11.339Z,20.13
2018-08-17T01:38:39.828Z,26.20
2018-08-17T01:41:09.016Z,22.20
2018-08-17T01:43:37.492Z,22.53
2018-08-17T01:46:05.992Z,21.27
2018-08-17T01:48:34.392Z,25.33
2018-08-17T01:51:02.820Z,23.40
2018-08-17T01:53:32.230Z,24.77
2018-08-17T01:56:00.692Z,26.57
2018-08-17T01:58:29.109Z,23.43
2018-08-17T02:00:57.554Z,24.87
2018-08-17T02:03:26.030Z,25.27
2018-08-17T02:05:54.512Z,23.07
2018-08-17T02:08:22.985Z,24.70
2018-08-17T02:10:51.469Z,23.03
2018-08-17T02:13:19.875Z,22.77
2018-08-17T02:15:48.348Z,23.50
2018-08-17T02:18:16.755Z,27.37
2018-08-17T02:20:45.144Z,33.17
2018-08-17T02:23:13.542Z,30.47
2018-08-17T02:25:41.956Z,26.13
2018-08-17T02:28:10.403Z,28.27
2018-08-17T02:30:38.853Z,34.20
2018-08-17T02:33:07.276Z,28.20
2018-08-17T02:35:35.693Z,26.40
2018-08-17T02:38:04.169Z,25.57
2018-08-17T02:40:32.651Z,27.90
2018-08-17T02:43:01.273Z,35.63
2018-08-17T02:45:29.679Z,34.03
2018-08-17T02:47:58.121Z,28.37
2018-08-17T02:50:26.770Z,27.77
2018-08-17T02:52:55.180Z,27.17
2018-08-17T02:55:23.576Z,29.07
2018-08-17T02:57:52.101Z,28.67
2018-08-17T03:00:20.577Z,21.00
2018-08-17T03:02:48.996Z,28.17
2018-08-17T03:05:17.443Z,20.60
2018-08-17T03:07:45.957Z,19.43
2018-08-17T03:10:14.357Z,23.50
2018-08-17T03:12:42.807Z,20.83
2018-08-17T03:15:11.248Z,19.57
2018-08-17T03:17:39.637Z,16.97
2018-08-17T03:20:08.070Z,18.30
2018-08-17T03:22:36.953Z,18.90
2018-08-17T03:25:05.448Z,18.70
2018-08-17T03:27:33.891Z,19.57
2018-08-17T03:30:02.376Z,16.43
2018-08-17T03:32:30.766Z,17.50
2018-08-17T03:34:59.143Z,21.10
2018-08-17T03:37:27.839Z,17.90
2018-08-17T03:39:56.244Z,18.10
2018-08-17T03:42:24.700Z,16.50
2018-08-17T03:44:53.138Z,16.80
2018-08-17T03:47:21.597Z,19.10
2018-08-17T03:49:50.083Z,14.97
2018-08-17T03:52:19.047Z,14.20
2018-08-17T03:54:47.626Z,15.37
2018-08-17T03:57:16.543Z,21.43
2018-08-17T03:59:44.972Z,14.80
2018-08-17T04:02:13.394Z,12.70
2018-08-17T04:04:41.886Z,15.80
2018-08-17T04:07:10.349Z,11.27
2018-08-17T04:09:38.739Z,12.47
2018-08-17T04:12:07.196Z,19.80
2018-08-17T04:14:35.609Z,13.13
2018-08-17T04:17:04.038Z,11.10
2018-08-17T04:19:32.468Z,10.40
2018-08-17T04:22:01.484Z,13.00
2018-08-17T04:24:29.913Z,12.53
2018-08-17T04:26:58.783Z,12.03
2018-08-17T04:29:27.174Z,15.77
2018-08-17T04:31:55.594Z,21.67
2018-08-17T04:34:23.977Z,10.50
2018-08-17T04:36:52.407Z,10.03
2018-08-17T04:39:20.829Z,10.77
2018-08-17T04:41:49.249Z,15.23
2018-08-17T04:44:17.676Z,9.37
2018-08-17T04:46:46.096Z,8.60
2018-08-17T04:49:14.588Z,8.20
2018-08-17T04:51:42.971Z,10.50
2018-08-17T04:54:11.393Z,9.67
2018-08-17T04:56:39.767Z,8.30
2018-08-17T04:59:08.184Z,9.33
2018-08-17T05:01:36.644Z,10.73
2018-08-17T05:04:05.049Z,11.77
2018-08-17T05:06:33.493Z,13.50
2018-08-17T05:09:01.980Z,9.50
2018-08-17T05:11:30.331Z,6.80
2018-08-17T05:13:58.823Z,14.97
2018-08-17T05:16:27.189Z,10.27
2018-08-17T05:18:55.666Z,8.07
2018-08-17T05:21:24.109Z,9.20
2018-08-17T05:23:52.505Z,8.87
2018-08-17T05:26:20.884Z,8.43
2018-08-17T05:28:49.312Z,14.60
2018-08-17T05:31:17.769Z,12.73
2018-08-17T05:33:46.196Z,12.60
2018-08-17T05:36:14.653Z,9.77
2018-08-17T05:38:43.545Z,8.30
2018-08-17T05:41:11.952Z,7.97
2018-08-17T05:43:40.985Z,9.30
2018-08-17T05:46:09.423Z,10.07
2018-08-17T05:48:37.796Z,12.03
2018-08-17T05:51:06.200Z,13.50
2018-08-17T05:53:34.596Z,20.37
2018-08-17T05:56:03.030Z,11.70
2018-08-17T05:58:31.464Z,12.53
2018-08-17T06:00:59.886Z,13.37
2018-08-17T06:03:28.318Z,15.63
2018-08-17T06:05:56.789Z,13.30
2018-08-17T06:08:25.251Z,13.67
2018-08-17T06:10:53.732Z,13.63
2018-08-17T06:13:22.165Z,12.70
2018-08-17T06:15:50.590Z,17.93
2018-08-17T06:18:19.053Z,12.87
2018-08-17T06:20:47.701Z,16.10
2018-08-17T06:23:16.127Z,17.87
2018-08-17T06:25:45.734Z,16.70
2018-08-17T06:28:14.529Z,9.97
2018-08-17T06:30:43.111Z,12.13
2018-08-17T06:33:11.571Z,13.30
2018-08-17T06:35:40.035Z,7.90
2018-08-17T06:38:08.475Z,10.87
2018-08-17T06:40:37.011Z,7.77
2018-08-17T06:43:05.473Z,11.57
2018-08-17T06:45:33.972Z,9.67
2018-08-17T06:48:02.364Z,12.73
2018-08-17T06:50:30.816Z,6.53
2018-08-17T06:52:59.228Z,9.67
2018-08-17T06:55:27.660Z,9.63
2018-08-17T06:57:56.117Z,9.43
2018-08-17T07:00:24.525Z,9.83
2018-08-17T07:02:53.177Z,8.07
2018-08-17T07:05:22.343Z,7.10
2018-08-17T07:07:50.751Z,11.20
2018-08-17T07:10:19.244Z,7.73
2018-08-17T07:12:47.667Z,10.47
2018-08-17T07:15:17.025Z,7.87
2018-08-17T07:17:45.435Z,10.70
2018-08-17T07:20:14.366Z,14.07
2018-08-17T07:22:42.948Z,9.03
2018-08-17T07:25:11.515Z,12.20
2018-08-17T07:27:40.035Z,10.40
2018-08-17T07:30:09.417Z,8.00
2018-08-17T07:32:37.945Z,8.00
2018-08-17T07:35:08.014Z,8.83
2018-08-17T07:37:37.114Z,13.70
2018-08-17T07:40:08.865Z,11.33
2018-08-17T07:42:38.254Z,12.77
2018-08-17T07:45:07.596Z,12.23
2018-08-17T07:47:36.058Z,10.40
2018-08-17T07:50:04.651Z,11.23
2018-08-17T07:52:33.105Z,9.43
2018-08-17T07:55:01.923Z,10.20
2018-08-17T07:57:30.941Z,8.70
2018-08-17T07:59:59.342Z,9.77
2018-08-17T08:02:27.780Z,11.57
2018-08-17T08:04:56.264Z,9.70
2018-08-17T08:07:24.675Z,10.80
2018-08-17T08:09:54.042Z,8.93
2018-08-17T08:12:22.545Z,10.90
2018-08-17T08:14:51.788Z,9.53
2018-08-17T08:17:20.263Z,26.90
2018-08-17T08:20:31.456Z,58.53
2018-08-17T08:23:10.956Z,27.43
2018-08-17T08:25:39.720Z,29.43
2018-08-17T08:28:08.201Z,10.00
2018-08-17T08:30:36.641Z,11.30
2018-08-17T08:33:05.164Z,8.97
2018-08-17T08:35:33.576Z,8.80
2018-08-17T08:38:02.006Z,8.60
2018-08-17T08:40:30.512Z,6.87
2018-08-17T08:42:58.933Z,9.97
2018-08-17T08:45:27.365Z,12.33
2018-08-17T08:47:55.800Z,11.30
2018-08-17T08:50:24.255Z,8.93
2018-08-17T08:52:52.718Z,9.63
2018-08-17T08:55:22.125Z,8.70
2018-08-17T08:57:50.856Z,11.30
2018-08-17T09:00:19.656Z,9.60
2018-08-17T09:02:48.201Z,11.93
2018-08-17T09:05:16.692Z,9.00
2018-08-17T09:07:45.101Z,7.10
2018-08-17T09:10:13.743Z,8.70
2018-08-17T09:12:42.232Z,10.50
2018-08-17T09:15:12.559Z,8.30
2018-08-17T09:17:42.624Z,7.20
2018-08-17T09:20:13.893Z,10.00
2018-08-17T09:22:43.145Z,10.50
2018-08-17T09:25:11.881Z,9.67
2018-08-17T09:27:40.356Z,12.73
2018-08-17T09:30:10.723Z,11.63
2018-08-17T09:32:39.580Z,17.70
2018-08-17T09:35:08.276Z,19.23
2018-08-17T09:37:36.752Z,21.90
2018-08-17T09:40:06.033Z,23.30
2018-08-17T09:42:35.107Z,22.27
2018-08-17T09:45:03.677Z,19.90
2018-08-17T09:47:32.186Z,17.17
2018-08-17T09:50:00.717Z,17.87
2018-08-17T09:52:29.215Z,19.23
2018-08-17T09:54:58.258Z,16.30
2018-08-17T09:57:26.769Z,17.93
2018-08-17T09:59:55.155Z,25.47
2018-08-17T10:02:29.725Z,23.87
2018-08-17T10:05:04.276Z,25.23
2018-08-17T10:07:37.944Z,23.63
2018-08-17T10:10:11.613Z,21.10
2018-08-17T10:12:40.114Z,21.20
2018-08-17T10:15:08.548Z,19.27
2018-08-17T10:17:37.013Z,18.60
2018-08-17T10:20:12.860Z,19.30
2018-08-17T10:22:42.516Z,20.30
2018-08-17T10:25:15.636Z,19.90
2018-08-17T10:27:45.193Z,22.43
2018-08-17T10:30:13.661Z,19.10
2018-08-17T10:32:47.322Z,24.67
2018-08-17T10:35:19.900Z,17.40
2018-08-17T10:37:48.397Z,19.80
2018-08-17T10:40:16.864Z,20.40
2018-08-17T10:42:45.651Z,18.53
2018-08-17T10:45:14.069Z,20.50
2018-08-17T10:47:42.516Z,21.70
2018-08-17T10:50:16.379Z,26.37
2018-08-17T10:52:44.777Z,20.67
2018-08-17T10:55:13.647Z,20.60
2018-08-17T10:57:42.221Z,25.70
2018-08-17T11:00:14.336Z,21.27
2018-08-17T11:02:43.444Z,18.53
2018-08-17T11:05:12.615Z,15.20
2018-08-17T11:07:41.080Z,17.63
2018-08-17T11:10:10.902Z,15.53
2018-08-17T11:12:41.030Z,17.67
2018-08-17T11:15:10.260Z,20.73
2018-08-17T11:17:38.733Z,19.50
2018-08-17T11:20:07.317Z,17.00
2018-08-17T11:22:36.283Z,19.20
2018-08-17T11:25:06.393Z,20.47
2018-08-17T11:27:36.148Z,22.10
2018-08-17T11:30:06.889Z,21.90
2018-08-17T11:32:35.377Z,20.03
2018-08-17T11:35:03.890Z,27.30
2018-08-17T11:37:32.640Z,21.77
2018-08-17T11:40:02.212Z,22.00
2018-08-17T11:42:36.795Z,21.50
2018-08-17T11:45:09.725Z,15.53
2018-08-17T11:47:38.781Z,15.30
2018-08-17T11:50:09.744Z,15.17
2018-08-17T11:52:44.495Z,19.50
2018-08-17T11:55:12.909Z,17.80
2018-08-17T11:57:41.829Z,19.10
2018-08-17T12:00:10.265Z,21.50
2018-08-17T12:02:38.681Z,20.47
2018-08-17T12:05:07.687Z,23.43
2018-08-17T12:07:36.260Z,31.77
2018-08-17T12:10:05.690Z,18.60
2018-08-17T12:12:35.343Z,18.50
2018-08-17T12:15:04.982Z,20.30
2018-08-17T12:17:33.919Z,21.37
2018-08-17T12:20:02.543Z,19.80
2018-08-17T12:25:13.676Z,18.83
2018-08-17T12:27:46.948Z,14.83
2018-08-17T12:30:15.407Z,12.10
2018-08-17T12:32:43.886Z,14.50
2018-08-17T12:35:12.308Z,15.00
2018-08-17T12:37:40.769Z,13.90
2018-08-17T12:40:09.248Z,15.53
2018-08-17T12:42:38.573Z,13.07
2018-08-17T12:45:12.398Z,12.83
2018-08-17T12:47:40.783Z,13.93
2018-08-17T12:50:09.227Z,15.17
2018-08-17T12:52:37.648Z,11.60
2018-08-17T12:55:06.165Z,15.33
2018-08-17T12:57:39.882Z,15.80
2018-08-17T13:00:08.347Z,15.37
2018-08-17T13:02:36.831Z,11.90
2018-08-17T13:05:05.394Z,12.07
2018-08-17T13:07:33.876Z,16.03
2018-08-17T13:10:02.320Z,19.50
2018-08-17T13:12:30.752Z,12.33
2018-08-17T13:14:59.196Z,11.07
2018-08-17T13:17:31.906Z,14.30
2018-08-17T13:20:00.765Z,10.60
2018-08-17T13:22:29.223Z,11.43
2018-08-17T13:24:57.612Z,14.30
2018-08-17T13:27:26.619Z,12.53
2018-08-17T13:29:55.334Z,10.33
2018-08-17T13:32:23.725Z,12.27
2018-08-17T13:34:52.350Z,10.63
2018-08-17T13:37:20.901Z,8.43
2018-08-17T13:39:49.371Z,10.33
2018-08-17T13:42:17.797Z,9.50
2018-08-17T13:44:46.256Z,10.70
2018-08-17T13:47:14.950Z,13.33
2018-08-17T13:49:43.503Z,11.83
2018-08-17T13:52:11.961Z,11.20
2018-08-17T13:54:40.362Z,13.40
2018-08-17T13:57:08.764Z,12.63
2018-08-17T13:59:37.222Z,10.03
2018-08-17T14:02:05.753Z,11.80
2018-08-17T14:04:34.925Z,13.13
2018-08-17T14:07:03.428Z,12.90
2018-08-17T14:09:32.403Z,9.37
2018-08-17T14:12:00.995Z,12.60
2018-08-17T14:14:29.445Z,17.63
2018-08-17T14:16:58.051Z,13.20
2018-08-17T14:19:26.513Z,11.07
2018-08-17T14:21:54.985Z,9.00
2018-08-17T14:24:23.510Z,6.77
2018-08-17T14:26:52.006Z,12.00
2018-08-17T14:29:20.619Z,6.77
2018-08-17T14:31:50.505Z,8.30
2018-08-17T14:34:18.964Z,7.77
2018-08-17T14:36:47.411Z,8.73
2018-08-17T14:39:15.879Z,11.50
2018-08-17T14:41:53.703Z,10.17
2018-08-17T14:44:22.900Z,12.17
2018-08-17T14:46:52.144Z,9.87
2018-08-17T14:49:20.724Z,9.53
2018-08-17T14:51:49.803Z,14.73
2018-08-17T14:54:18.299Z,13.40
2018-08-17T14:56:46.867Z,11.23
2018-08-17T14:59:15.693Z,10.00
2018-08-17T15:01:44.175Z,13.33
2018-08-17T15:04:12.612Z,15.20
2018-08-17T15:06:41.090Z,11.10
2018-08-17T15:09:11.757Z,9.87
2018-08-17T15:11:41.192Z,9.47
2018-08-17T15:14:11.257Z,12.57
2018-08-17T15:16:39.776Z,11.33
2018-08-17T15:19:08.320Z,14.57
2018-08-17T15:21:36.853Z,16.37
2018-08-17T15:24:05.322Z,19.23
2018-08-17T15:26:33.832Z,11.43
2018-08-17T15:29:02.269Z,12.97
2018-08-17T15:31:30.738Z,11.07
2018-08-17T15:33:59.194Z,14.00
2018-08-17T15:36:27.656Z,12.50
2018-08-17T15:38:56.119Z,11.57
2018-08-17T15:41:24.671Z,11.80
2018-08-17T15:43:54.003Z,8.03
2018-08-17T15:46:22.925Z,12.03
2018-08-17T15:48:52.981Z,8.47
2018-08-17T15:51:22.724Z,8.47
2018-08-17T15:53:51.371Z,12.03
2018-08-17T15:56:20.222Z,7.97
2018-08-17T15:58:48.901Z,9.47
2018-08-17T16:01:17.502Z,14.17
2018-08-17T16:03:45.923Z,10.57
2018-08-17T16:06:14.405Z,8.07
2018-08-17T16:08:42.834Z,9.20
2018-08-17T16:11:11.303Z,7.43
2018-08-17T16:13:40.800Z,8.40
2018-08-17T16:16:09.375Z,10.33
2018-08-17T16:18:38.590Z,7.40
2018-08-17T16:21:07.090Z,7.00
2018-08-17T16:23:35.571Z,6.97
2018-08-17T16:26:04.127Z,6.03
2018-08-17T16:28:32.756Z,15.63
2018-08-17T16:31:01.161Z,6.53
2018-08-17T16:33:29.697Z,9.00
2018-08-17T16:35:58.219Z,7.33
2018-08-17T16:38:26.665Z,6.77
2018-08-17T16:40:55.176Z,10.20
2018-08-17T16:43:28.991Z,6.10
2018-08-17T16:45:57.419Z,5.73
2018-08-17T16:48:26.522Z,6.90
2018-08-17T16:50:54.997Z,7.63
2018-08-17T16:53:22.384Z,6.50
2018-08-17T16:55:50.824Z,8.30
2018-08-17T16:58:20.129Z,4.87
2018-08-17T17:00:48.648Z,14.60
2018-08-17T17:03:17.108Z,9.53
2018-08-17T17:05:45.673Z,8.60
2018-08-17T17:08:14.097Z,4.43
2018-08-17T17:10:42.582Z,7.90
2018-08-17T17:13:11.017Z,4.73
2018-08-17T17:15:39.504Z,7.23
2018-08-17T17:18:09.167Z,20.37
2018-08-17T17:20:38.719Z,7.50
2018-08-17T17:23:09.437Z,12.83
2018-08-17T17:25:38.021Z,6.80
2018-08-17T17:28:07.034Z,12.60
2018-08-17T17:30:44.164Z,8.30
2018-08-17T17:33:12.700Z,9.77
2018-08-17T17:35:42.214Z,5.17
2018-08-17T17:38:11.449Z,6.37
2018-08-17T17:40:40.577Z,6.30
2018-08-17T17:43:09.219Z,10.43
2018-08-17T17:45:38.329Z,5.30
2018-08-17T17:48:07.759Z,21.80
2018-08-17T17:50:36.270Z,9.97
2018-08-17T17:53:04.834Z,9.17
2018-08-17T17:55:42.695Z,11.47
2018-08-17T17:58:11.393Z,7.43
2018-08-17T18:00:39.868Z,7.70
2018-08-17T18:03:08.781Z,10.83
2018-08-17T18:05:37.848Z,6.50
2018-08-17T18:08:11.712Z,7.83
2018-08-17T18:10:40.182Z,8.30
2018-08-17T18:13:08.688Z,6.60
2018-08-17T18:15:37.012Z,9.37
2018-08-17T18:18:05.514Z,14.53
2018-08-17T18:20:33.986Z,10.23
2018-08-17T18:23:02.418Z,7.53
2018-08-17T18:25:30.837Z,9.17
2018-08-17T18:27:59.342Z,9.00
2018-08-17T18:30:28.442Z,4.80
2018-08-17T18:32:57.494Z,5.40
2018-08-17T18:35:26.039Z,6.10
2018-08-17T18:37:54.473Z,6.80
2018-08-17T18:40:22.961Z,10.03
2018-08-17T18:42:51.344Z,6.10
2018-08-17T18:45:19.790Z,6.03
2018-08-17T18:47:48.250Z,5.73
2018-08-17T18:50:16.689Z,6.53
2018-08-17T18:52:46.808Z,5.63
2018-08-17T18:55:15.306Z,6.23
2018-08-17T18:57:43.722Z,6.27
2018-08-17T19:00:13.627Z,4.77
2018-08-17T19:02:42.990Z,7.73
2018-08-17T19:05:11.845Z,6.90
2018-08-17T19:07:40.354Z,6.47
2018-08-17T19:10:09.775Z,10.60
2018-08-17T19:12:38.156Z,6.00
2018-08-17T19:15:13.540Z,6.10
2018-08-17T19:17:42.473Z,4.80
2018-08-17T19:20:12.549Z,8.23
2018-08-17T19:22:43.097Z,5.90
2018-08-17T19:25:12.934Z,4.00
2018-08-17T19:27:41.948Z,9.13
2018-08-17T19:30:21.682Z,8.13
2018-08-17T19:32:50.399Z,9.80
2018-08-17T19:35:19.057Z,8.50
2018-08-17T19:37:47.843Z,8.33
2018-08-17T19:40:16.283Z,6.80
2018-08-17T19:42:44.774Z,11.17
2018-08-17T19:45:13.214Z,6.17
2018-08-17T19:47:41.792Z,5.90
2018-08-17T19:50:10.296Z,5.80
2018-08-17T19:52:38.669Z,6.23
2018-08-17T19:55:07.656Z,9.80
2018-08-17T19:57:36.034Z,9.27
2018-08-17T20:00:07.055Z,8.40
2018-08-17T20:02:35.457Z,8.47
2018-08-17T20:05:04.002Z,4.83
2018-08-17T20:07:32.495Z,8.90
2018-08-17T20:10:01.721Z,7.30
2018-08-17T20:12:30.800Z,12.97
2018-08-17T20:14:59.801Z,6.33
2018-08-17T20:17:28.276Z,10.53
2018-08-17T20:19:56.694Z,10.90
2018-08-17T20:22:25.194Z,5.40
2018-08-17T20:24:53.641Z,6.30
2018-08-17T20:27:22.104Z,10.20
2018-08-17T20:29:50.540Z,6.30
2018-08-17T20:32:19.711Z,10.07
2018-08-17T20:34:49.962Z,8.83
2018-08-17T20:37:18.764Z,9.27
2018-08-17T20:39:48.304Z,11.77
2018-08-17T20:42:16.724Z,14.43
2018-08-17T20:44:45.200Z,7.20
2018-08-17T20:47:13.724Z,10.37
2018-08-17T20:49:42.173Z,10.13
2018-08-17T20:52:11.134Z,7.90
2018-08-17T20:54:39.872Z,6.60
2018-08-17T20:57:08.264Z,8.23
2018-08-17T20:59:36.705Z,5.70
2018-08-17T21:02:05.162Z,4.43
2018-08-17T21:04:33.619Z,5.67
2018-08-17T21:07:02.086Z,9.50
2018-08-17T21:09:30.707Z,6.30
2018-08-17T21:11:59.157Z,11.13
2018-08-17T21:14:27.569Z,9.80
2018-08-17T21:16:55.946Z,7.53
2018-08-17T21:19:43.465Z,5.30
2018-08-17T21:22:12.072Z,4.40
2018-08-17T21:24:40.590Z,4.20
2018-08-17T21:27:09.625Z,7.80
2018-08-17T21:29:38.097Z,6.80
2018-08-17T21:32:06.471Z,6.50
2018-08-17T21:34:34.859Z,4.10
2018-08-17T21:37:03.448Z,5.27
2018-08-17T21:39:31.924Z,11.30
2018-08-17T21:42:00.367Z,5.83
2018-08-17T21:44:28.807Z,8.37
2018-08-17T21:47:03.441Z,5.70
2018-08-17T21:49:31.889Z,5.27
2018-08-17T21:52:02.854Z,7.60
2018-08-17T21:54:32.665Z,6.63
2018-08-17T21:57:01.982Z,7.87
2018-08-17T21:59:36.118Z,6.90
2018-08-17T22:02:06.336Z,12.33
2018-08-17T22:04:35.157Z,8.80
2018-08-17T22:07:08.825Z,8.40
2018-08-17T22:09:40.753Z,6.97
2018-08-17T22:12:10.177Z,7.10
2018-08-17T22:14:39.128Z,5.73
2018-08-17T22:17:11.993Z,8.03
2018-08-17T22:19:41.696Z,3.97
2018-08-17T22:22:11.775Z,9.97
2018-08-17T22:24:45.273Z,5.23
2018-08-17T22:27:16.229Z,8.50
2018-08-17T22:29:46.694Z,8.50
2018-08-17T22:32:15.120Z,11.67
2018-08-17T22:34:43.629Z,9.00
2018-08-17T22:37:12.497Z,5.87
2018-08-17T22:39:40.932Z,8.47
2018-08-17T22:42:09.644Z,7.30
2018-08-17T22:44:38.080Z,7.27
2018-08-17T22:47:12.318Z,7.60
2018-08-17T22:49:40.800Z,7.67
2018-08-17T22:52:09.260Z,9.00
2018-08-17T22:54:41.814Z,7.13
2018-08-17T22:57:10.653Z,10.60
2018-08-17T22:59:39.130Z,6.03
2018-08-17T23:02:07.760Z,9.20
2018-08-17T23:04:36.148Z,9.73
2018-08-17T23:07:04.653Z,12.33
2018-08-17T23:09:33.092Z,9.47
2018-08-17T23:12:01.497Z,6.20
2018-08-17T23:14:29.939Z,6.10
2018-08-17T23:16:58.367Z,5.23
2018-08-17T23:19:26.783Z,8.27
2018-08-17T23:21:55.202Z,8.80
2018-08-17T23:24:23.597Z,5.97
2018-08-17T23:26:52.085Z,8.33
2018-08-17T23:29:20.496Z,9.30
2018-08-17T23:31:48.923Z,8.33
2018-08-17T23:34:17.278Z,5.23
2018-08-17T23:36:45.723Z,7.43
2018-08-17T23:39:14.168Z,8.10
2018-08-17T23:41:43.401Z,11.87
2018-08-17T23:44:11.843Z,6.80
2018-08-17T23:46:40.256Z,9.10
2018-08-17T23:49:08.740Z,8.10
2018-08-17T23:51:37.186Z,6.90
2018-08-17T23:54:05.576Z,13.03
2018-08-17T23:56:33.965Z,11.40
2018-08-17T23:59:02.397Z,10.17
